Time;durP1;ratioP1;P1;durP2;ratioP2;P2;SDS_P1;SDS_P2;PMS_P1;PMS_P2;Temp;Humidity;BMP_temperature;BMP_pressure;BME280_temperature;BME280_humidity;BME280_pressure;Samples;Min_cycle;Max_cycle;Signal;HPM_P1;HPM_P2
2021/05/31 00:02:09;;;;;;;6.93;4.60;;;18.00;99.90;;;;;;5085409;28;20188;-60
2021/05/31 00:04:35;;;;;;;7.82;4.38;;;18.00;99.90;;;;;;5082726;28;20167;-61
2021/05/31 00:07:08;;;;;;;5.97;4.93;;;18.00;99.90;;;;;;5085480;28;20250;-61
2021/05/31 00:09:36;;;;;;;5.25;4.43;;;18.00;99.90;;;;;;5085453;28;20156;-61
2021/05/31 00:12:02;;;;;;;5.53;5.03;;;17.90;99.90;;;;;;5085127;28;20176;-61
2021/05/31 00:14:28;;;;;;;5.68;5.13;;;17.90;99.90;;;;;;5083257;28;20168;-61
2021/05/31 00:16:54;;;;;;;9.43;5.32;;;17.90;99.90;;;;;;5085715;28;20168;-60
2021/05/31 00:19:20;;;;;;;9.07;5.32;;;17.80;99.90;;;;;;5085575;28;20179;-59
2021/05/31 00:21:46;;;;;;;5.70;4.90;;;17.80;99.90;;;;;;5085390;28;20195;-60
2021/05/31 00:24:12;;;;;;;6.97;5.45;;;17.80;99.90;;;;;;5084188;28;20160;-61
2021/05/31 00:26:38;;;;;;;9.63;5.22;;;17.70;99.90;;;;;;5084328;28;20148;-60
2021/05/31 00:29:04;;;;;;;7.80;5.10;;;17.70;99.90;;;;;;5087753;28;20246;-60
2021/05/31 00:31:30;;;;;;;5.57;5.07;;;17.70;99.90;;;;;;5089578;28;20171;-61
2021/05/31 00:33:56;;;;;;;6.45;5.85;;;17.60;99.90;;;;;;5089160;28;20172;-61
2021/05/31 00:36:21;;;;;;;6.88;4.60;;;17.60;99.90;;;;;;5086614;28;20220;-61
2021/05/31 00:38:47;;;;;;;5.95;5.30;;;17.40;99.90;;;;;;5089252;28;20174;-61
2021/05/31 00:41:13;;;;;;;7.72;5.28;;;17.50;99.90;;;;;;5089478;28;20180;-60
2021/05/31 00:43:39;;;;;;;7.80;5.40;;;17.40;99.90;;;;;;5089393;28;20156;-61
2021/05/31 00:46:07;;;;;;;8.65;5.15;;;17.40;99.90;;;;;;5086583;28;20183;-60
2021/05/31 00:48:34;;;;;;;8.75;5.25;;;17.30;99.90;;;;;;5089029;28;20172;-60
2021/05/31 00:51:03;;;;;;;5.38;4.88;;;17.10;99.90;;;;;;5089524;28;20267;-60
2021/05/31 00:53:29;;;;;;;6.78;5.80;;;17.10;99.90;;;;;;5089247;28;20225;-61
2021/05/31 00:55:55;;;;;;;7.53;5.57;;;17.10;99.90;;;;;;5086527;28;20634;-60
2021/05/31 00:58:27;;;;;;;5.90;5.40;;;17.00;99.90;;;;;;5088991;28;20176;-60
2021/05/31 01:00:55;;;;;;;6.40;5.80;;;17.00;99.90;;;;;;5087340;28;20202;-60
2021/05/31 01:03:21;;;;;;;6.40;5.60;;;17.00;99.90;;;;;;5087029;28;20463;-60
2021/05/31 01:05:47;;;;;;;7.85;5.55;;;17.00;99.90;;;;;;5086503;28;20160;-60
2021/05/31 01:08:19;;;;;;;7.03;5.65;;;16.90;99.90;;;;;;5087643;28;20182;-60
2021/05/31 01:10:52;;;;;;;6.22;5.32;;;16.90;99.90;;;;;;5088965;28;20621;-60
2021/05/31 01:13:45;;;;;;;5.90;5.40;;;16.80;99.90;;;;;;5088800;28;20175;-60
2021/05/31 01:16:21;;;;;;;11.20;6.25;;;16.80;99.90;;;;;;5086383;28;20160;-60
2021/05/31 01:18:49;;;;;;;8.77;6.00;;;16.90;99.90;;;;;;5088629;28;20179;-60
2021/05/31 01:22:05;;;;;;;6.93;5.65;;;16.60;99.90;;;;;;5088675;28;20179;-60
2021/05/31 01:24:49;;;;;;;6.68;6.07;;;16.60;99.90;;;;;;5083044;28;20172;-60
2021/05/31 01:27:22;;;;;;;10.00;6.00;;;16.50;99.90;;;;;;5088470;28;20675;-60
2021/05/31 01:29:55;;;;;;;6.32;5.82;;;16.20;99.90;;;;;;5088561;28;20176;-60
2021/05/31 01:32:29;;;;;;;9.18;6.45;;;16.20;99.90;;;;;;5088312;28;20438;-60
2021/05/31 01:34:56;;;;;;;6.53;5.90;;;16.40;99.90;;;;;;5085340;28;20171;-60
2021/05/31 01:37:24;;;;;;;6.63;5.88;;;16.20;99.90;;;;;;5088503;28;20175;-60
2021/05/31 01:39:52;;;;;;;7.47;6.78;;;16.10;99.90;;;;;;5088424;28;20171;-60
2021/05/31 01:42:20;;;;;;;7.32;6.63;;;16.00;99.90;;;;;;5086765;28;20279;-61
2021/05/31 01:44:48;;;;;;;8.40;6.68;;;16.00;99.90;;;;;;5085656;28;20159;-61
2021/05/31 01:47:15;;;;;;;7.03;6.38;;;15.90;99.90;;;;;;5088145;28;20621;-61
2021/05/31 01:49:43;;;;;;;11.05;6.95;;;15.90;99.90;;;;;;5087914;28;20172;-61
2021/05/31 01:52:10;;;;;;;13.23;7.00;;;15.80;99.90;;;;;;5087921;28;20171;-61
2021/05/31 01:54:36;;;;;;;8.20;7.40;;;15.90;99.90;;;;;;5085558;28;20171;-61
2021/05/31 01:57:03;;;;;;;9.68;6.90;;;16.00;99.90;;;;;;5087935;28;20563;-61
2021/05/31 01:59:31;;;;;;;7.35;6.65;;;16.20;99.90;;;;;;5088149;28;20163;-61
2021/05/31 02:01:57;;;;;;;7.53;6.82;;;16.30;99.90;;;;;;5086425;28;20223;-61
2021/05/31 02:04:23;;;;;;;13.90;6.88;;;16.20;99.90;;;;;;5084991;28;20168;-61
2021/05/31 02:06:53;;;;;;;11.07;6.85;;;16.00;99.90;;;;;;5086884;28;20519;-61
2021/05/31 02:09:20;;;;;;;6.70;6.15;;;15.90;99.90;;;;;;5087567;28;20222;-61
2021/05/31 02:12:04;;;;;;;10.00;6.60;;;15.80;99.90;;;;;;5086295;28;20170;-61
2021/05/31 02:14:43;;;;;;;11.38;7.13;;;15.70;99.90;;;;;;5085304;28;20268;-61
2021/05/31 02:17:29;;;;;;;10.35;7.32;;;15.60;99.90;;;;;;5086398;28;20187;-61
2021/05/31 02:20:06;;;;;;;10.32;7.45;;;15.50;99.90;;;;;;5087337;28;20183;-61
2021/05/31 02:22:42;;;;;;;8.60;7.65;;;15.60;99.90;;;;;;5087325;28;20188;-61
2021/05/31 02:25:08;;;;;;;10.05;6.95;;;15.50;99.90;;;;;;5085062;28;20178;-61
2021/05/31 02:27:35;;;;;;;8.05;7.25;;;15.50;99.90;;;;;;5087523;28;20171;-61
2021/05/31 02:30:01;;;;;;;7.75;6.95;;;15.50;99.90;;;;;;5087383;28;20638;-61
2021/05/31 02:32:30;;;;;;;8.38;6.93;;;15.50;99.90;;;;;;5087250;28;20182;-61
2021/05/31 02:34:57;;;;;;;10.73;7.45;;;15.50;99.90;;;;;;5084114;28;20179;-61
2021/05/31 02:37:37;;;;;;;8.98;8.00;;;15.40;99.90;;;;;;5087344;28;20168;-61
2021/05/31 02:40:05;;;;;;;10.68;6.97;;;15.50;99.90;;;;;;5086882;28;20163;-61
2021/05/31 02:42:51;;;;;;;8.10;7.10;;;15.40;99.90;;;;;;5086814;28;20192;-61
2021/05/31 02:45:19;;;;;;;8.55;7.45;;;15.30;99.90;;;;;;5084564;28;20163;-61
2021/05/31 02:47:45;;;;;;;9.82;7.90;;;15.20;99.90;;;;;;5087018;28;20160;-61
2021/05/31 02:50:13;;;;;;;11.13;8.23;;;15.20;99.90;;;;;;5085427;28;20229;-61
2021/05/31 02:52:42;;;;;;;10.10;7.90;;;15.20;99.90;;;;;;5085047;28;20171;-61
2021/05/31 02:55:13;;;;;;;15.07;8.82;;;15.20;99.90;;;;;;5084346;28;20191;-61
2021/05/31 02:57:40;;;;;;;15.80;8.70;;;15.30;99.90;;;;;;5085781;28;20217;-61
2021/05/31 03:00:09;;;;;;;9.88;8.75;;;15.20;99.90;;;;;;5086478;28;20160;-61
2021/05/31 03:02:35;;;;;;;15.65;8.27;;;15.10;99.90;;;;;;5086416;28;20199;-61
2021/05/31 03:05:01;;;;;;;10.25;9.23;;;15.10;99.90;;;;;;5083890;28;20616;-60
2021/05/31 03:07:27;;;;;;;9.55;8.25;;;15.20;99.90;;;;;;5086919;28;20163;-61
2021/05/31 03:09:52;;;;;;;9.88;8.57;;;15.10;99.90;;;;;;5085438;28;20209;-61
2021/05/31 03:12:19;;;;;;;12.90;8.82;;;15.00;99.90;;;;;;5086219;28;20193;-61
2021/05/31 03:14:44;;;;;;;10.65;8.45;;;15.00;99.90;;;;;;5084081;28;20156;-60
2021/05/31 03:17:10;;;;;;;10.80;8.85;;;15.00;99.90;;;;;;5086440;28;20168;-61
2021/05/31 03:19:36;;;;;;;15.40;8.50;;;15.00;99.90;;;;;;5084979;28;20180;-61
2021/05/31 03:22:02;;;;;;;12.35;7.90;;;15.10;99.90;;;;;;5086301;28;20203;-61
2021/05/31 03:24:28;;;;;;;9.13;8.23;;;14.90;99.90;;;;;;5083852;28;20156;-61
2021/05/31 03:26:54;;;;;;;9.48;8.40;;;14.90;99.90;;;;;;5086434;28;20160;-61
2021/05/31 03:29:19;;;;;;;18.35;8.90;;;14.90;99.90;;;;;;5086210;28;20239;-61
2021/05/31 03:31:45;;;;;;;8.95;8.23;;;14.80;99.90;;;;;;5086001;28;20164;-61
2021/05/31 03:34:11;;;;;;;10.18;8.10;;;14.80;99.90;;;;;;5084584;28;20183;-61
2021/05/31 03:36:36;;;;;;;18.13;8.50;;;14.80;99.90;;;;;;5084758;28;20219;-61
2021/05/31 03:39:05;;;;;;;19.75;8.75;;;14.90;99.90;;;;;;5086028;28;20171;-61
2021/05/31 03:41:31;;;;;;;13.02;8.68;;;14.80;99.90;;;;;;5086200;28;20221;-60
2021/05/31 03:43:57;;;;;;;9.55;8.60;;;14.80;99.90;;;;;;5085964;28;20164;-61
2021/05/31 03:46:23;;;;;;;10.40;9.23;;;14.70;99.90;;;;;;5082180;28;20170;-61
2021/05/31 03:48:48;;;;;;;9.95;8.50;;;14.70;99.90;;;;;;5085838;28;20168;-61
2021/05/31 03:51:17;;;;;;;11.25;8.35;;;14.70;99.90;;;;;;5086049;28;20198;-61
2021/05/31 03:53:43;;;;;;;11.20;8.43;;;14.70;99.90;;;;;;5085903;28;20185;-61
2021/05/31 03:56:09;;;;;;;10.20;9.23;;;14.70;99.90;;;;;;5083445;28;20172;-61
2021/05/31 03:58:36;;;;;;;10.60;8.60;;;14.70;99.90;;;;;;5085957;28;20195;-61
2021/05/31 04:01:02;;;;;;;11.65;8.55;;;14.70;99.90;;;;;;5085857;28;20199;-61
2021/05/31 04:03:28;;;;;;;10.63;8.77;;;14.70;99.90;;;;;;5084469;28;20231;-61
2021/05/31 04:06:04;;;;;;;10.10;8.93;;;14.60;99.90;;;;;;5083305;28;20179;-61
2021/05/31 04:14:07;;;;;;;9.32;8.40;;;14.70;99.90;;;;;;5085753;28;20176;-61
2021/05/31 04:16:34;;;;;;;13.63;8.95;;;14.70;99.90;;;;;;5084123;28;20160;-61
2021/05/31 04:19:00;;;;;;;12.60;9.18;;;14.50;99.90;;;;;;5085427;28;20164;-61
2021/05/31 04:21:26;;;;;;;14.07;8.80;;;14.60;99.90;;;;;;5085729;28;20585;-61
2021/05/31 04:23:52;;;;;;;12.85;9.35;;;14.70;99.90;;;;;;5085505;28;20161;-61
2021/05/31 04:26:18;;;;;;;14.05;8.02;;;14.70;99.90;;;;;;5083312;28;20163;-61
2021/05/31 04:28:44;;;;;;;10.55;8.02;;;14.70;99.90;;;;;;5085502;28;20578;-61
2021/05/31 04:31:09;;;;;;;11.18;8.82;;;14.70;99.90;;;;;;5085547;28;20168;-61
2021/05/31 04:33:35;;;;;;;13.77;9.23;;;14.70;99.90;;;;;;5084986;28;20223;-61
2021/05/31 04:36:01;;;;;;;12.05;8.77;;;14.80;99.90;;;;;;5082598;28;20222;-61
2021/05/31 04:38:26;;;;;;;9.88;8.68;;;14.90;99.90;;;;;;5085606;28;20168;-61
2021/05/31 04:40:52;;;;;;;11.77;8.98;;;14.90;99.90;;;;;;5085335;28;20230;-61
2021/05/31 04:43:19;;;;;;;12.68;9.20;;;14.90;99.90;;;;;;5085076;28;20171;-61
2021/05/31 04:45:44;;;;;;;12.02;8.93;;;15.00;99.90;;;;;;5082875;28;20175;-61
2021/05/31 04:48:10;;;;;;;14.18;9.82;;;15.00;99.90;;;;;;5085108;28;20164;-60
2021/05/31 04:50:36;;;;;;;17.70;9.93;;;15.10;99.90;;;;;;5085101;28;20172;-61
2021/05/31 04:53:02;;;;;;;14.88;9.35;;;15.20;99.90;;;;;;5085138;28;20172;-61
2021/05/31 04:55:28;;;;;;;13.75;9.20;;;15.20;99.90;;;;;;5082882;28;20163;-61
2021/05/31 04:57:54;;;;;;;12.52;9.73;;;15.20;99.90;;;;;;5085450;28;20171;-61
2021/05/31 05:00:20;;;;;;;15.65;10.05;;;15.30;99.90;;;;;;5085132;28;20347;-61
2021/05/31 05:02:46;;;;;;;16.13;10.02;;;15.30;99.90;;;;;;5083677;28;20190;-61
2021/05/31 05:05:13;;;;;;;13.32;9.43;;;15.30;99.90;;;;;;5082185;28;20172;-61
2021/05/31 05:07:45;;;;;;;12.73;10.40;;;15.30;99.90;;;;;;5085215;28;20232;-61
2021/05/31 05:10:17;;;;;;;13.07;10.18;;;15.40;99.90;;;;;;5085021;28;20164;-60
2021/05/31 05:12:45;;;;;;;13.05;10.18;;;15.50;99.90;;;;;;5084216;28;20172;-60
2021/05/31 05:15:12;;;;;;;13.55;10.32;;;15.50;99.90;;;;;;5084521;28;20169;-60
2021/05/31 05:17:38;;;;;;;14.38;10.40;;;15.60;99.90;;;;;;5088632;28;20164;-60
2021/05/31 05:20:05;;;;;;;14.27;10.48;;;15.70;99.90;;;;;;5088219;28;20266;-60
2021/05/31 05:22:31;;;;;;;12.63;10.65;;;15.80;99.90;;;;;;5088494;28;20196;-60
2021/05/31 05:24:57;;;;;;;14.35;9.90;;;15.80;99.90;;;;;;5085870;28;20167;-60
2021/05/31 05:27:23;;;;;;;12.63;10.25;;;15.80;99.90;;;;;;5088468;28;20234;-60
2021/05/31 05:29:48;;;;;;;14.52;9.93;;;15.90;99.90;;;;;;5088596;28;20161;-60
2021/05/31 05:32:14;;;;;;;11.27;10.05;;;15.90;99.90;;;;;;5087827;28;20231;-61
2021/05/31 05:34:40;;;;;;;14.73;10.10;;;15.90;99.90;;;;;;5086201;28;20183;-61
2021/05/31 05:37:13;;;;;;;12.73;10.10;;;15.90;99.90;;;;;;5088316;28;20265;-61
2021/05/31 05:42:59;;;;;;;14.30;9.85;;;15.90;99.90;;;;;;5087873;28;20241;-60
2021/05/31 05:47:46;;;;;;;17.27;10.52;;;16.20;99.90;;;;;;5088169;28;20168;-60
2021/05/31 05:50:17;;;;;;;13.55;10.50;;;16.30;99.90;;;;;;5086779;28;20398;-60
2021/05/31 05:52:43;;;;;;;14.75;9.82;;;16.60;99.90;;;;;;5087953;28;20179;-60
2021/05/31 05:55:10;;;;;;;13.98;10.02;;;16.60;99.90;;;;;;5085994;28;20156;-60
2021/05/31 05:57:37;;;;;;;13.40;9.25;;;16.70;99.90;;;;;;5087977;28;20160;-63
2021/05/31 06:00:14;;;;;;;14.50;9.82;;;16.80;99.90;;;;;;5087965;28;20170;-60
2021/05/31 06:02:40;;;;;;;13.85;8.93;;;16.80;99.90;;;;;;5087352;28;20195;-60
2021/05/31 06:05:07;;;;;;;11.82;9.50;;;16.70;99.90;;;;;;5084584;28;20206;-60
2021/05/31 06:07:33;;;;;;;14.95;9.40;;;16.80;99.90;;;;;;5087894;28;20152;-60
2021/05/31 06:10:00;;;;;;;13.20;9.98;;;16.90;99.90;;;;;;5087609;28;20170;-60
2021/05/31 06:12:25;;;;;;;12.85;9.20;;;16.90;99.90;;;;;;5087227;28;20165;-60
2021/05/31 06:14:51;;;;;;;10.38;9.35;;;16.90;99.90;;;;;;5084895;28;20194;-60
2021/05/31 06:17:17;;;;;;;12.18;8.68;;;17.00;99.90;;;;;;5087396;28;20527;-60
2021/05/31 06:19:42;;;;;;;13.43;8.57;;;16.90;99.90;;;;;;5087213;28;20172;-60
2021/05/31 06:22:08;;;;;;;14.90;9.18;;;17.00;99.90;;;;;;5087049;28;20218;-59
2021/05/31 06:24:34;;;;;;;13.63;9.60;;;17.10;99.90;;;;;;5084998;28;20187;-61
2021/05/31 06:27:00;;;;;;;11.43;8.93;;;17.20;99.90;;;;;;5086659;28;20160;-60
2021/05/31 06:29:27;;;;;;;14.30;8.98;;;17.20;99.90;;;;;;5087318;28;20182;-60
2021/05/31 06:31:52;;;;;;;14.75;9.18;;;17.30;99.90;;;;;;5087079;28;20164;-60
2021/05/31 06:34:18;;;;;;;11.05;8.57;;;17.40;99.90;;;;;;5084759;28;20175;-61
2021/05/31 06:36:45;;;;;;;16.98;9.27;;;17.50;99.90;;;;;;5086221;28;20224;-59
2021/05/31 06:39:11;;;;;;;21.25;9.15;;;17.50;99.90;;;;;;5086776;28;20167;-60
2021/05/31 06:41:38;;;;;;;13.93;8.50;;;17.50;99.90;;;;;;5086958;28;20196;-60
2021/05/31 06:44:05;;;;;;;11.27;8.65;;;17.60;99.90;;;;;;5086357;28;20200;-60
2021/05/31 06:46:31;;;;;;;16.75;8.98;;;17.70;99.90;;;;;;5085218;28;20153;-60
2021/05/31 06:48:57;;;;;;;17.13;8.85;;;17.80;99.90;;;;;;5086131;28;20259;-60
2021/05/31 06:51:23;;;;;;;15.88;8.52;;;18.00;99.90;;;;;;5086805;28;20229;-60
2021/05/31 06:53:49;;;;;;;14.25;8.93;;;18.10;99.90;;;;;;5086690;28;20254;-60
2021/05/31 06:56:16;;;;;;;9.50;7.63;;;18.20;99.90;;;;;;5084225;28;20156;-60
2021/05/31 06:58:42;;;;;;;10.13;8.27;;;18.20;99.90;;;;;;5086568;28;20175;-60
2021/05/31 07:01:10;;;;;;;11.32;7.80;;;18.30;99.90;;;;;;5086362;28;20196;-60
2021/05/31 07:03:36;;;;;;;19.20;7.70;;;18.40;99.90;;;;;;5086210;28;20152;-60
2021/05/31 07:06:02;;;;;;;10.68;8.52;;;18.50;99.90;;;;;;5084038;28;20186;-60
2021/05/31 07:08:28;;;;;;;15.70;8.68;;;18.50;99.90;;;;;;5085246;28;20160;-60
2021/05/31 07:10:56;;;;;;;14.45;8.13;;;18.50;99.90;;;;;;5086347;28;20183;-60
2021/05/31 07:13:22;;;;;;;9.02;7.40;;;18.60;99.90;;;;;;5085985;28;20168;-61
2021/05/31 07:15:49;;;;;;;10.40;7.15;;;18.70;99.90;;;;;;5083665;28;20166;-61
2021/05/31 07:18:14;;;;;;;12.88;8.98;;;18.80;99.90;;;;;;5086118;28;20236;-61
2021/05/31 07:20:40;;;;;;;12.20;7.85;;;18.80;99.90;;;;;;5085972;28;20191;-61
2021/05/31 07:23:08;;;;;;;10.95;6.80;;;19.10;99.90;;;;;;5086040;28;20228;-61
2021/05/31 07:25:33;;;;;;;14.20;8.60;;;19.10;99.90;;;;;;5083827;28;20244;-62
2021/05/31 07:27:59;;;;;;;9.85;7.13;;;19.10;99.90;;;;;;5086327;28;20164;-61
2021/05/31 07:30:26;;;;;;;11.85;8.30;;;19.30;99.90;;;;;;5086431;28;20184;-61
2021/05/31 07:32:51;;;;;;;12.95;7.80;;;19.40;99.90;;;;;;5085786;28;20803;-61
2021/05/31 07:35:17;;;;;;;12.48;7.70;;;19.50;99.90;;;;;;5083069;28;20212;-61
2021/05/31 07:37:43;;;;;;;10.57;7.05;;;19.60;99.90;;;;;;5085424;28;20159;-61
2021/05/31 07:40:11;;;;;;;10.57;7.00;;;19.60;99.90;;;;;;5084447;28;20160;-62
2021/05/31 07:42:38;;;;;;;13.93;6.85;;;19.60;99.90;;;;;;5085638;28;20198;-61
2021/05/31 07:45:05;;;;;;;12.68;6.70;;;19.70;99.90;;;;;;5083142;28;20156;-62
2021/05/31 07:47:31;;;;;;;10.75;6.47;;;19.70;99.90;;;;;;5086044;28;20168;-61
2021/05/31 07:49:57;;;;;;;10.25;7.25;;;19.80;99.90;;;;;;5085391;28;20525;-61
2021/05/31 07:52:27;;;;;;;8.38;6.20;;;19.80;99.90;;;;;;5085501;28;20534;-61
2021/05/31 07:54:54;;;;;;;15.82;6.40;;;19.90;99.90;;;;;;5083229;28;20227;-61
2021/05/31 07:57:21;;;;;;;10.38;6.22;;;20.00;99.90;;;;;;5085620;28;20168;-61
2021/05/31 07:59:49;;;;;;;10.98;6.43;;;20.10;99.90;;;;;;5085794;28;20164;-61
2021/05/31 08:02:15;;;;;;;9.27;6.68;;;20.20;99.90;;;;;;5085342;28;20188;-61
2021/05/31 08:04:41;;;;;;;13.25;6.70;;;20.30;99.90;;;;;;5082676;28;20198;-61
2021/05/31 08:07:08;;;;;;;7.70;5.18;;;20.40;99.90;;;;;;5084962;28;20164;-61
2021/05/31 08:09:35;;;;;;;13.80;6.13;;;20.50;99.90;;;;;;5085330;28;20160;-61
2021/05/31 08:12:00;;;;;;;5.80;5.20;;;20.50;99.90;;;;;;5085379;28;20164;-61
2021/05/31 08:14:26;;;;;;;8.18;6.20;;;20.50;99.90;;;;;;5082906;28;20207;-61
2021/05/31 08:16:54;;;;;;;11.10;6.35;;;20.80;99.90;;;;;;5085382;28;20168;-60
2021/05/31 08:19:20;;;;;;;10.05;5.60;;;20.80;99.90;;;;;;5083818;28;20321;-61
2021/05/31 08:21:47;;;;;;;8.20;5.45;;;20.70;99.90;;;;;;5085317;28;20215;-61
2021/05/31 08:24:13;;;;;;;12.88;4.93;;;20.70;99.90;;;;;;5083775;28;20168;-61
2021/05/31 08:26:40;;;;;;;8.63;5.45;;;20.80;99.90;;;;;;5084217;28;20163;-61
2021/05/31 08:29:06;;;;;;;7.53;5.18;;;20.80;99.90;;;;;;5084993;28;20160;-61
2021/05/31 08:31:32;;;;;;;8.02;5.05;;;20.80;99.90;;;;;;5085408;28;20246;-61
2021/05/31 08:33:58;;;;;;;9.15;5.53;;;20.90;99.90;;;;;;5084988;28;20172;-61
2021/05/31 08:36:24;;;;;;;11.02;5.30;;;21.10;99.90;;;;;;5082457;28;20299;-61
2021/05/31 08:38:58;;;;;;;14.15;4.97;;;21.10;99.90;;;;;;5085261;28;20164;-61
2021/05/31 08:41:28;;;;;;;5.03;4.57;;;21.20;99.90;;;;;;5085072;28;20198;-61
2021/05/31 08:43:54;;;;;;;4.97;4.47;;;21.30;99.90;;;;;;5085030;28;20171;-61
2021/05/31 08:46:20;;;;;;;9.70;4.53;;;21.50;99.90;;;;;;5082821;28;20152;-61
2021/05/31 08:48:46;;;;;;;5.88;4.60;;;21.60;99.90;;;;;;5084519;28;20234;-61
2021/05/31 08:51:12;;;;;;;9.60;4.53;;;21.70;99.90;;;;;;5089025;28;20164;-61
2021/05/31 08:53:41;;;;;;;8.63;4.53;;;21.90;99.90;;;;;;5089072;28;20168;-61
2021/05/31 08:56:07;;;;;;;8.25;4.43;;;21.80;99.90;;;;;;5086529;28;20629;-61
2021/05/31 08:58:32;;;;;;;6.20;3.67;;;21.90;99.90;;;;;;5088764;28;20171;-61
2021/05/31 09:00:58;;;;;;;5.70;4.05;;;21.90;99.90;;;;;;5088672;28;20661;-61
2021/05/31 09:03:23;;;;;;;6.93;3.95;;;22.10;99.90;;;;;;5088454;28;20246;-61
2021/05/31 09:05:49;;;;;;;6.50;2.88;;;22.10;99.90;;;;;;5086168;28;20224;-61
2021/05/31 09:08:20;;;;;;;5.32;3.67;;;22.10;99.90;;;;;;5088559;28;20163;-61
2021/05/31 09:10:58;;;;;;;4.47;3.30;;;22.20;99.90;;;;;;5088596;28;20190;-61
2021/05/31 09:13:32;;;;;;;11.68;2.97;;;22.30;99.90;;;;;;5088341;28;20183;-61
2021/05/31 09:16:09;;;;;;;3.58;2.65;;;22.30;99.90;;;;;;5086247;28;20176;-61
2021/05/31 09:18:35;;;;;;;4.03;2.90;;;22.30;99.90;;;;;;5088112;28;20168;-61
2021/05/31 09:21:25;;;;;;;5.75;3.35;;;22.50;99.90;;;;;;5088092;28;20188;-61
2021/05/31 09:23:54;;;;;;;3.17;2.60;;;22.50;99.90;;;;;;5088511;28;20222;-61
2021/05/31 09:26:20;;;;;;;6.20;2.92;;;22.70;99.90;;;;;;5086149;28;20203;-60
2021/05/31 09:28:54;;;;;;;5.63;2.83;;;22.70;99.90;;;;;;5088547;28;20164;-62
2021/05/31 09:31:21;;;;;;;3.55;2.45;;;22.80;99.90;;;;;;5088014;28;20247;-61
2021/05/31 09:34:16;;;;;;;3.85;2.75;;;22.90;99.90;;;;;;5087348;28;20186;-61
2021/05/31 09:37:08;;;;;;;6.07;2.97;;;23.00;99.90;;;;;;5082249;28;20216;-61
2021/05/31 09:39:41;;;;;;;3.50;2.78;;;22.90;99.90;;;;;;5086795;28;20275;-61
2021/05/31 09:42:13;;;;;;;10.93;3.05;;;23.00;99.90;;;;;;5087831;28;20206;-62
2021/05/31 09:44:39;;;;;;;3.78;2.70;;;23.00;99.90;;;;;;5085275;28;20171;-61
2021/05/31 09:47:05;;;;;;;4.93;2.75;;;23.10;99.90;;;;;;5087700;28;20152;-61
2021/05/31 09:49:31;;;;;;;4.70;3.05;;;23.30;99.90;;;;;;5087843;28;20175;-61
2021/05/31 09:52:02;;;;;;;3.80;2.80;;;23.40;99.90;;;;;;5087985;28;20223;-61
2021/05/31 09:54:37;;;;;;;4.78;2.72;;;23.40;99.90;;;;;;5085211;28;20707;-61
2021/05/31 09:57:19;;;;;;;6.68;3.00;;;23.40;99.90;;;;;;5086486;28;20254;-61
2021/05/31 09:59:56;;;;;;;6.35;3.28;;;23.50;99.90;;;;;;5087937;28;20184;-61
2021/05/31 10:11:03;;;;;;;6.10;3.13;;;23.50;99.90;;;;;;5085051;28;20198;-62
2021/05/31 10:13:30;;;;;;;3.00;2.70;;;23.50;99.90;;;;;;5085135;28;20219;-61
2021/05/31 10:15:57;;;;;;;3.13;2.90;;;23.60;99.90;;;;;;5082714;28;20174;-61
2021/05/31 10:18:24;;;;;;;3.03;2.58;;;23.90;99.90;;;;;;5084799;28;20301;-61
2021/05/31 10:20:50;;;;;;;5.93;3.65;;;24.10;99.90;;;;;;5067600;28;20202;-61
2021/05/31 10:23:15;;;;;;;8.30;3.15;;;24.30;99.90;;;;;;5084677;28;20168;-61
2021/05/31 10:25:46;;;;;;;4.00;3.03;;;24.40;99.90;;;;;;5082348;28;20176;-61
2021/05/31 10:28:21;;;;;;;6.15;3.08;;;24.10;99.90;;;;;;5084703;28;20168;-61
2021/05/31 10:30:57;;;;;;;2.60;2.40;;;24.20;99.90;;;;;;5084859;28;20167;-61
2021/05/31 10:33:25;;;;;;;5.00;3.05;;;24.40;99.90;;;;;;5084138;28;20244;-61
2021/05/31 10:35:52;;;;;;;3.63;2.80;;;24.20;99.90;;;;;;5081148;28;20223;-61
2021/05/31 10:38:20;;;;;;;6.18;2.45;;;24.30;99.90;;;;;;5084273;28;20168;-62
2021/05/31 10:40:50;;;;;;;4.53;2.80;;;24.70;99.90;;;;;;5086814;28;20182;-61
2021/05/31 10:43:19;;;;;;;3.97;2.38;;;24.70;99.90;;;;;;5086427;28;20175;-61
2021/05/31 10:45:45;;;;;;;4.57;2.75;;;24.70;99.90;;;;;;5084505;28;20163;-62
2021/05/31 10:48:12;;;;;;;6.20;3.30;;;25.00;99.90;;;;;;5086757;28;20224;-62
2021/05/31 10:50:52;;;;;;;4.38;3.30;;;24.90;99.90;;;;;;5086470;28;20164;-62
2021/05/31 10:53:25;;;;;;;5.05;3.15;;;24.90;99.90;;;;;;5086458;28;20209;-61
2021/05/31 10:55:52;;;;;;;6.07;3.25;;;25.00;99.90;;;;;;5084232;28;20232;-61
2021/05/31 10:58:21;;;;;;;6.22;3.10;;;25.20;99.90;;;;;;5086471;28;20526;-61
2021/05/31 11:01:14;;;;;;;4.22;3.25;;;25.40;99.90;;;;;;5086676;28;20305;-61
2021/05/31 11:03:52;;;;;;;6.63;3.05;;;25.60;99.90;;;;;;5085181;28;20199;-61
2021/05/31 11:06:19;;;;;;;3.35;2.75;;;25.40;99.90;;;;;;5084024;28;20168;-61
2021/05/31 11:08:50;;;;;;;3.22;2.92;;;25.30;99.90;;;;;;5085185;28;20164;-61
2021/05/31 11:11:34;;;;;;;5.75;2.83;;;25.10;99.90;;;;;;5086497;28;20170;-61
2021/05/31 11:14:01;;;;;;;4.85;3.00;;;25.20;99.90;;;;;;5086236;28;20177;-61
2021/05/31 11:16:27;;;;;;;9.27;3.00;;;25.50;99.90;;;;;;5083879;28;20673;-61
2021/05/31 11:19:01;;;;;;;7.80;2.90;;;25.50;99.90;;;;;;5085781;28;20711;-61
2021/05/31 11:21:37;;;;;;;5.80;3.35;;;25.70;99.90;;;;;;5086321;28;20192;-61
2021/05/31 11:24:12;;;;;;;5.35;3.15;;;25.90;99.90;;;;;;5085630;28;20164;-61
2021/05/31 11:26:41;;;;;;;3.80;2.83;;;26.10;99.90;;;;;;5084864;28;20254;-61
2021/05/31 11:29:09;;;;;;;6.85;2.67;;;26.50;99.90;;;;;;5085814;28;20152;-61
2021/05/31 11:31:36;;;;;;;5.60;3.00;;;26.70;99.90;;;;;;5085626;28;20168;-61
2021/05/31 11:34:03;;;;;;;8.27;3.17;;;26.20;99.90;;;;;;5084964;28;20175;-62
2021/05/31 11:36:35;;;;;;;3.55;2.70;;;26.20;99.90;;;;;;5083792;28;20208;-61
2021/05/31 11:39:06;;;;;;;3.47;3.10;;;26.30;99.90;;;;;;5085870;28;20171;-61
2021/05/31 11:41:42;;;;;;;4.90;2.97;;;26.10;99.90;;;;;;5086005;28;20196;-61
2021/05/31 11:44:20;;;;;;;8.05;3.13;;;26.50;99.90;;;;;;5084859;28;20159;-62
2021/05/31 11:46:52;;;;;;;3.83;2.80;;;26.70;99.90;;;;;;5085518;28;20213;-61
2021/05/31 11:49:19;;;;;;;5.22;3.33;;;26.90;99.90;;;;;;5085150;28;20178;-61
2021/05/31 11:52:02;;;;;;;4.63;3.30;;;26.60;99.90;;;;;;5085569;28;20515;-60
2021/05/31 11:54:32;;;;;;;6.70;3.38;;;26.60;99.90;;;;;;5082724;28;20959;-61
2021/05/31 11:57:10;;;;;;;7.65;2.83;;;26.70;99.90;;;;;;5085421;28;20160;-61
2021/05/31 11:59:40;;;;;;;7.68;3.50;;;26.80;99.90;;;;;;5084728;28;20156;-61
2021/05/31 12:02:08;;;;;;;5.53;3.38;;;26.70;99.90;;;;;;5085125;28;20270;-61
2021/05/31 12:04:36;;;;;;;3.85;3.22;;;26.40;99.90;;;;;;5082359;28;20194;-61
2021/05/31 12:07:06;;;;;;;4.50;2.88;;;26.30;99.90;;;;;;5085265;28;20672;-61
2021/05/31 12:09:35;;;;;;;5.43;3.10;;;26.50;99.90;;;;;;5084188;28;20195;-61
2021/05/31 12:12:00;;;;;;;6.97;3.20;;;26.60;99.90;;;;;;5085657;28;20228;-61
2021/05/31 12:14:27;;;;;;;4.13;2.90;;;26.80;99.90;;;;;;5082124;28;20172;-61
2021/05/31 12:16:58;;;;;;;5.03;3.00;;;26.80;99.90;;;;;;5085112;28;20160;-61
2021/05/31 12:19:29;;;;;;;6.50;2.95;;;26.80;99.90;;;;;;5084605;28;20171;-61
2021/05/31 12:21:57;;;;;;;3.50;3.15;;;26.90;99.90;;;;;;5085552;28;20219;-61
2021/05/31 12:24:24;;;;;;;6.53;3.40;;;26.80;99.90;;;;;;5084211;28;20171;-61
2021/05/31 12:26:50;;;;;;;7.20;3.50;;;26.70;99.90;;;;;;5089922;28;20223;-61
2021/05/31 12:29:15;;;;;;;3.63;3.15;;;26.80;99.90;;;;;;5088969;28;20164;-61
2021/05/31 12:31:41;;;;;;;3.22;2.72;;;27.30;99.90;;;;;;5089481;28;20174;-62
2021/05/31 12:34:07;;;;;;;7.80;3.20;;;27.50;99.90;;;;;;5088050;28;20436;-61
2021/05/31 12:36:32;;;;;;;8.45;3.55;;;27.70;99.90;;;;;;5087506;28;20219;-61
2021/05/31 12:39:00;;;;;;;7.80;3.28;;;27.30;99.90;;;;;;5089290;28;20168;-62
2021/05/31 12:41:26;;;;;;;5.10;2.92;;;27.10;99.90;;;;;;5089315;28;20187;-63
2021/05/31 12:43:51;;;;;;;3.72;3.20;;;27.20;99.90;;;;;;5087587;28;20565;-62
2021/05/31 12:46:19;;;;;;;6.38;3.17;;;27.50;99.90;;;;;;5086778;28;20171;-62
2021/05/31 12:48:51;;;;;;;4.68;3.25;;;27.90;99.90;;;;;;5089107;28;20163;-62
2021/05/31 12:51:17;;;;;;;8.30;3.42;;;28.20;99.90;;;;;;5088624;28;20208;-62
2021/05/31 12:53:47;;;;;;;10.45;3.72;;;28.50;99.90;;;;;;5088844;28;20172;-61
2021/05/31 12:56:13;;;;;;;5.28;3.47;;;28.20;99.90;;;;;;5086684;28;20301;-61
2021/05/31 12:58:39;;;;;;;5.93;3.70;;;28.20;99.90;;;;;;5088683;28;20168;-62
2021/05/31 13:01:05;;;;;;;3.65;2.97;;;28.10;99.90;;;;;;5088803;28;20215;-61
2021/05/31 13:03:33;;;;;;;4.38;3.00;;;28.30;99.90;;;;;;5088665;28;20167;-62
2021/05/31 13:06:00;;;;;;;3.38;3.00;;;28.50;99.90;;;;;;5086242;28;20251;-62
2021/05/31 13:08:37;;;;;;;3.83;3.42;;;28.40;99.90;;;;;;5087589;28;20148;-60
2021/05/31 13:11:03;;;;;;;4.90;2.97;;;28.20;99.90;;;;;;5088359;28;20160;-60